Impacts TAF Board INFO
FOR SITUATIONAL AWARENESS. NOT TO BE USED FOR FLIGHT PLANNING PURPOSES.
IDs:

KANB - Anniston Metro, AL, US

Issued at 1129 UTC 21 May 2018
Updated at 1314 UTC 21 May 2018
Potential Impact None Slight Moderate High
Time<<22/02Z 22/03Z 22/04Z 22/05Z 22/06Z 22/07Z 22/08Z 22/09Z 22/10Z 22/11Z 22/12Z 22/13Z 22/14Z>>
Type PRVL PRVL PRVL PRVL PRVL PRVL PRVL PRVL PRVL PRVL
VIS >6 >6 >6 >6 >6 >6 >6 4 4 4
CIG 50 100 100 100 100 100 100 7 7 7
Cover BKN OVC OVC OVC OVC OVC OVC OVC OVC OVC
FltCat VFR VFR VFR VFR VFR VFR VFR IFR IFR IFR
WX VCTS -- -- -- -- -- -- BR BR BR
WDir 120 110 110 110 110 110 110 120 120 120
WSpd 10 5 5 5 5 5 5 4 4 4
WGst -- -- -- -- -- -- -- -- -- --

Raw TAF
KANB 211129Z 2112/2212 11008KT P6SM SCT015 BKN050
  FM211800 12010KT P6SM VCTS BKN050CB
  PROB30 2121/2202 P6SM TSRA BKN035CB OVC050
  FM220300 11005KT P6SM OVC100
  FM220900 12004KT 4SM BR OVC007


METAR Board
Radar Display
Forecast Discussion

FOR SITUATIONAL AWARENESS. NOT TO BE USED FOR FLIGHT PLANNING PURPOSES.